sensor_id;sensor_type;location;lat;lon;timestamp;P1;durP1;ratioP1;P2;durP2;ratioP2
76867;SDS011;66168;45.478;11.060;2024-01-15T00:00:29;56.50;;;31.50;;
76867;SDS011;66168;45.478;11.060;2024-01-15T00:02:56;57.20;;;30.30;;
76867;SDS011;66168;45.478;11.060;2024-01-15T00:05:24;29.00;;;18.10;;
76867;SDS011;66168;45.478;11.060;2024-01-15T00:07:51;34.80;;;20.20;;
76867;SDS011;66168;45.478;11.060;2024-01-15T00:10:18;42.00;;;23.30;;
76867;SDS011;66168;45.478;11.060;2024-01-15T00:12:44;47.50;;;25.30;;
76867;SDS011;66168;45.478;11.060;2024-01-15T00:15:12;50.80;;;26.70;;
76867;SDS011;66168;45.478;11.060;2024-01-15T00:17:39;45.30;;;25.60;;
76867;SDS011;66168;45.478;11.060;2024-01-15T00:20:06;40.70;;;21.80;;
76867;SDS011;66168;45.478;11.060;2024-01-15T00:22:33;54.60;;;30.70;;
76867;SDS011;66168;45.478;11.060;2024-01-15T00:25:02;60.60;;;31.70;;
76867;SDS011;66168;45.478;11.060;2024-01-15T00:27:29;49.80;;;27.60;;
76867;SDS011;66168;45.478;11.060;2024-01-15T00:29:57;37.30;;;22.60;;
76867;SDS011;66168;45.478;11.060;2024-01-15T00:32:23;54.70;;;28.40;;
76867;SDS011;66168;45.478;11.060;2024-01-15T00:34:50;51.40;;;28.20;;
76867;SDS011;66168;45.478;11.060;2024-01-15T00:37:18;43.60;;;23.10;;
76867;SDS011;66168;45.478;11.060;2024-01-15T00:39:45;43.00;;;22.50;;
76867;SDS011;66168;45.478;11.060;2024-01-15T00:42:12;45.00;;;23.10;;
76867;SDS011;66168;45.478;11.060;2024-01-15T00:44:41;41.60;;;22.00;;
76867;SDS011;66168;45.478;11.060;2024-01-15T00:47:09;49.20;;;26.80;;
76867;SDS011;66168;45.478;11.060;2024-01-15T00:49:35;53.70;;;30.00;;
76867;SDS011;66168;45.478;11.060;2024-01-15T00:52:02;33.30;;;20.00;;
76867;SDS011;66168;45.478;11.060;2024-01-15T00:54:29;31.20;;;19.90;;
76867;SDS011;66168;45.478;11.060;2024-01-15T00:56:56;45.70;;;26.30;;
76867;SDS011;66168;45.478;11.060;2024-01-15T00:59:23;51.20;;;27.60;;
76867;SDS011;66168;45.478;11.060;2024-01-15T01:01:50;41.00;;;21.90;;
76867;SDS011;66168;45.478;11.060;2024-01-15T01:04:17;45.80;;;24.20;;
76867;SDS011;66168;45.478;11.060;2024-01-15T01:06:44;43.50;;;24.60;;
76867;SDS011;66168;45.478;11.060;2024-01-15T01:09:11;45.50;;;23.40;;
76867;SDS011;66168;45.478;11.060;2024-01-15T01:11:38;56.90;;;28.20;;
76867;SDS011;66168;45.478;11.060;2024-01-15T01:14:05;49.80;;;27.30;;
76867;SDS011;66168;45.478;11.060;2024-01-15T01:16:32;55.00;;;29.80;;
76867;SDS011;66168;45.478;11.060;2024-01-15T01:19:05;38.80;;;24.10;;
76867;SDS011;66168;45.478;11.060;2024-01-15T01:21:33;44.50;;;26.70;;
76867;SDS011;66168;45.478;11.060;2024-01-15T01:24:01;52.30;;;28.30;;
76867;SDS011;66168;45.478;11.060;2024-01-15T01:26:28;48.20;;;26.50;;
76867;SDS011;66168;45.478;11.060;2024-01-15T01:28:55;51.10;;;27.70;;
76867;SDS011;66168;45.478;11.060;2024-01-15T01:31:22;44.30;;;24.00;;
76867;SDS011;66168;45.478;11.060;2024-01-15T01:33:50;43.20;;;26.10;;
76867;SDS011;66168;45.478;11.060;2024-01-15T01:36:17;42.20;;;23.90;;
76867;SDS011;66168;45.478;11.060;2024-01-15T01:38:44;33.50;;;20.90;;
76867;SDS011;66168;45.478;11.060;2024-01-15T01:41:11;54.30;;;30.90;;
76867;SDS011;66168;45.478;11.060;2024-01-15T01:43:37;49.30;;;27.40;;
76867;SDS011;66168;45.478;11.060;2024-01-15T01:46:04;46.30;;;26.00;;
76867;SDS011;66168;45.478;11.060;2024-01-15T01:48:31;48.00;;;25.50;;
76867;SDS011;66168;45.478;11.060;2024-01-15T01:51:00;54.70;;;27.70;;
76867;SDS011;66168;45.478;11.060;2024-01-15T01:53:31;53.20;;;26.70;;
76867;SDS011;66168;45.478;11.060;2024-01-15T01:56:00;45.10;;;23.80;;
76867;SDS011;66168;45.478;11.060;2024-01-15T01:58:29;42.10;;;24.10;;
76867;SDS011;66168;45.478;11.060;2024-01-15T02:00:59;40.50;;;23.50;;
76867;SDS011;66168;45.478;11.060;2024-01-15T02:03:26;38.40;;;22.00;;
76867;SDS011;66168;45.478;11.060;2024-01-15T02:05:54;39.80;;;20.70;;
76867;SDS011;66168;45.478;11.060;2024-01-15T02:08:22;50.40;;;27.40;;
76867;SDS011;66168;45.478;11.060;2024-01-15T02:10:49;50.90;;;27.50;;
76867;SDS011;66168;45.478;11.060;2024-01-15T02:13:16;40.10;;;23.30;;
76867;SDS011;66168;45.478;11.060;2024-01-15T02:15:44;33.40;;;20.50;;
76867;SDS011;66168;45.478;11.060;2024-01-15T02:18:11;43.40;;;23.90;;
76867;SDS011;66168;45.478;11.060;2024-01-15T02:20:38;42.60;;;23.70;;
76867;SDS011;66168;45.478;11.060;2024-01-15T02:25:39;37.90;;;21.10;;
76867;SDS011;66168;45.478;11.060;2024-01-15T02:28:09;34.50;;;18.50;;
76867;SDS011;66168;45.478;11.060;2024-01-15T02:30:38;32.20;;;18.00;;
76867;SDS011;66168;45.478;11.060;2024-01-15T02:33:07;30.80;;;14.80;;
76867;SDS011;66168;45.478;11.060;2024-01-15T02:35:35;28.40;;;15.50;;
76867;SDS011;66168;45.478;11.060;2024-01-15T02:38:06;39.10;;;22.10;;
76867;SDS011;66168;45.478;11.060;2024-01-15T02:40:33;38.30;;;22.00;;
76867;SDS011;66168;45.478;11.060;2024-01-15T02:43:00;33.50;;;19.70;;
76867;SDS011;66168;45.478;11.060;2024-01-15T02:45:27;28.00;;;16.90;;
76867;SDS011;66168;45.478;11.060;2024-01-15T02:47:55;42.10;;;21.30;;
76867;SDS011;66168;45.478;11.060;2024-01-15T02:50:22;34.10;;;19.80;;
76867;SDS011;66168;45.478;11.060;2024-01-15T02:52:49;33.00;;;18.80;;
76867;SDS011;66168;45.478;11.060;2024-01-15T02:55:16;25.90;;;15.50;;
76867;SDS011;66168;45.478;11.060;2024-01-15T02:57:43;27.70;;;15.60;;
76867;SDS011;66168;45.478;11.060;2024-01-15T03:00:10;29.20;;;15.70;;
76867;SDS011;66168;45.478;11.060;2024-01-15T03:02:39;27.30;;;15.70;;
76867;SDS011;66168;45.478;11.060;2024-01-15T03:05:10;33.60;;;18.70;;
76867;SDS011;66168;45.478;11.060;2024-01-15T03:07:37;45.00;;;23.60;;
76867;SDS011;66168;45.478;11.060;2024-01-15T03:10:05;36.20;;;21.00;;
76867;SDS011;66168;45.478;11.060;2024-01-15T03:12:33;35.80;;;21.10;;
76867;SDS011;66168;45.478;11.060;2024-01-15T03:15:00;32.30;;;19.30;;
76867;SDS011;66168;45.478;11.060;2024-01-15T03:17:27;31.80;;;17.40;;
76867;SDS011;66168;45.478;11.060;2024-01-15T03:19:54;33.10;;;17.80;;
76867;SDS011;66168;45.478;11.060;2024-01-15T03:22:21;30.30;;;17.20;;
76867;SDS011;66168;45.478;11.060;2024-01-15T03:24:47;28.30;;;15.50;;
76867;SDS011;66168;45.478;11.060;2024-01-15T03:27:15;34.20;;;18.00;;
76867;SDS011;66168;45.478;11.060;2024-01-15T03:29:42;26.60;;;14.50;;
76867;SDS011;66168;45.478;11.060;2024-01-15T03:32:09;38.70;;;20.10;;
76867;SDS011;66168;45.478;11.060;2024-01-15T03:34:35;41.70;;;21.60;;
76867;SDS011;66168;45.478;11.060;2024-01-15T03:37:03;37.50;;;20.10;;
76867;SDS011;66168;45.478;11.060;2024-01-15T03:39:30;32.30;;;19.70;;
76867;SDS011;66168;45.478;11.060;2024-01-15T03:41:57;30.30;;;18.00;;
76867;SDS011;66168;45.478;11.060;2024-01-15T03:44:24;32.20;;;17.70;;
76867;SDS011;66168;45.478;11.060;2024-01-15T03:46:51;28.30;;;17.10;;
76867;SDS011;66168;45.478;11.060;2024-01-15T03:49:18;30.00;;;17.00;;
76867;SDS011;66168;45.478;11.060;2024-01-15T03:51:45;25.50;;;15.50;;
76867;SDS011;66168;45.478;11.060;2024-01-15T03:54:12;28.70;;;15.90;;
76867;SDS011;66168;45.478;11.060;2024-01-15T03:56:40;26.20;;;16.00;;
76867;SDS011;66168;45.478;11.060;2024-01-15T03:59:07;21.70;;;14.50;;
76867;SDS011;66168;45.478;11.060;2024-01-15T04:01:34;32.40;;;18.90;;
76867;SDS011;66168;45.478;11.060;2024-01-15T04:04:01;33.30;;;19.90;;
76867;SDS011;66168;45.478;11.060;2024-01-15T04:06:28;37.70;;;20.70;;
76867;SDS011;66168;45.478;11.060;2024-01-15T04:08:55;27.40;;;17.10;;
76867;SDS011;66168;45.478;11.060;2024-01-15T04:11:22;33.50;;;17.80;;
76867;SDS011;66168;45.478;11.060;2024-01-15T04:13:49;28.00;;;14.90;;
76867;SDS011;66168;45.478;11.060;2024-01-15T04:16:16;33.30;;;18.00;;
76867;SDS011;66168;45.478;11.060;2024-01-15T04:18:43;28.30;;;15.50;;
76867;SDS011;66168;45.478;11.060;2024-01-15T04:21:10;27.10;;;15.50;;
76867;SDS011;66168;45.478;11.060;2024-01-15T04:23:38;30.30;;;14.90;;
76867;SDS011;66168;45.478;11.060;2024-01-15T04:26:06;23.20;;;15.80;;
76867;SDS011;66168;45.478;11.060;2024-01-15T04:28:32;26.60;;;14.90;;
76867;SDS011;66168;45.478;11.060;2024-01-15T04:30:59;38.90;;;20.60;;
76867;SDS011;66168;45.478;11.060;2024-01-15T04:33:26;39.50;;;19.70;;
76867;SDS011;66168;45.478;11.060;2024-01-15T04:35:53;31.10;;;18.40;;
76867;SDS011;66168;45.478;11.060;2024-01-15T04:38:20;35.20;;;19.30;;
76867;SDS011;66168;45.478;11.060;2024-01-15T04:40:47;37.40;;;20.50;;
76867;SDS011;66168;45.478;11.060;2024-01-15T04:43:14;33.30;;;18.50;;
76867;SDS011;66168;45.478;11.060;2024-01-15T04:45:40;31.70;;;17.10;;
76867;SDS011;66168;45.478;11.060;2024-01-15T04:48:07;28.30;;;15.00;;
76867;SDS011;66168;45.478;11.060;2024-01-15T04:50:35;28.20;;;15.80;;
76867;SDS011;66168;45.478;11.060;2024-01-15T04:53:01;28.30;;;15.90;;
76867;SDS011;66168;45.478;11.060;2024-01-15T04:55:28;31.50;;;16.30;;
76867;SDS011;66168;45.478;11.060;2024-01-15T04:57:55;28.20;;;15.70;;
76867;SDS011;66168;45.478;11.060;2024-01-15T05:00:22;35.40;;;18.90;;
76867;SDS011;66168;45.478;11.060;2024-01-15T05:02:49;41.90;;;20.20;;
76867;SDS011;66168;45.478;11.060;2024-01-15T05:05:16;32.50;;;18.50;;
76867;SDS011;66168;45.478;11.060;2024-01-15T05:07:43;39.60;;;19.70;;
76867;SDS011;66168;45.478;11.060;2024-01-15T05:10:10;55.70;;;25.00;;
76867;SDS011;66168;45.478;11.060;2024-01-15T05:12:37;46.30;;;23.40;;
76867;SDS011;66168;45.478;11.060;2024-01-15T05:15:04;40.60;;;20.30;;
76867;SDS011;66168;45.478;11.060;2024-01-15T05:17:32;38.80;;;18.70;;
76867;SDS011;66168;45.478;11.060;2024-01-15T05:19:58;38.60;;;19.70;;
76867;SDS011;66168;45.478;11.060;2024-01-15T05:22:26;31.90;;;17.60;;
76867;SDS011;66168;45.478;11.060;2024-01-15T05:24:53;34.10;;;17.60;;
76867;SDS011;66168;45.478;11.060;2024-01-15T05:27:20;27.80;;;17.10;;
76867;SDS011;66168;45.478;11.060;2024-01-15T05:29:46;29.50;;;17.10;;
76867;SDS011;66168;45.478;11.060;2024-01-15T05:32:13;41.10;;;22.30;;
76867;SDS011;66168;45.478;11.060;2024-01-15T05:34:40;41.40;;;22.00;;
76867;SDS011;66168;45.478;11.060;2024-01-15T05:37:07;30.40;;;18.00;;
76867;SDS011;66168;45.478;11.060;2024-01-15T05:39:34;33.50;;;19.30;;
76867;SDS011;66168;45.478;11.060;2024-01-15T05:42:01;34.80;;;18.60;;
76867;SDS011;66168;45.478;11.060;2024-01-15T05:44:28;32.20;;;17.00;;
76867;SDS011;66168;45.478;11.060;2024-01-15T05:46:55;33.10;;;17.60;;
76867;SDS011;66168;45.478;11.060;2024-01-15T05:49:21;33.70;;;18.30;;
76867;SDS011;66168;45.478;11.060;2024-01-15T05:51:49;26.30;;;15.60;;
76867;SDS011;66168;45.478;11.060;2024-01-15T05:54:16;29.50;;;15.70;;
76867;SDS011;66168;45.478;11.060;2024-01-15T05:56:42;23.60;;;13.50;;
76867;SDS011;66168;45.478;11.060;2024-01-15T05:59:09;24.20;;;14.90;;
76867;SDS011;66168;45.478;11.060;2024-01-15T06:01:40;23.00;;;13.10;;
76867;SDS011;66168;45.478;11.060;2024-01-15T06:04:07;27.40;;;16.00;;
76867;SDS011;66168;45.478;11.060;2024-01-15T06:06:34;21.00;;;12.90;;
76867;SDS011;66168;45.478;11.060;2024-01-15T06:09:01;14.50;;;9.50;;
76867;SDS011;66168;45.478;11.060;2024-01-15T06:11:32;29.30;;;16.00;;
76867;SDS011;66168;45.478;11.060;2024-01-15T06:13:59;28.10;;;15.40;;
76867;SDS011;66168;45.478;11.060;2024-01-15T06:16:29;17.60;;;11.40;;
76867;SDS011;66168;45.478;11.060;2024-01-15T06:18:56;21.70;;;13.30;;
76867;SDS011;66168;45.478;11.060;2024-01-15T06:21:23;23.80;;;13.30;;
76867;SDS011;66168;45.478;11.060;2024-01-15T06:23:50;24.60;;;13.80;;
76867;SDS011;66168;45.478;11.060;2024-01-15T06:26:17;22.50;;;13.10;;
76867;SDS011;66168;45.478;11.060;2024-01-15T06:28:43;28.10;;;15.60;;
76867;SDS011;66168;45.478;11.060;2024-01-15T06:31:10;24.90;;;13.30;;
76867;SDS011;66168;45.478;11.060;2024-01-15T06:33:38;25.70;;;13.60;;
76867;SDS011;66168;45.478;11.060;2024-01-15T06:36:05;23.90;;;12.90;;
76867;SDS011;66168;45.478;11.060;2024-01-15T06:38:33;21.80;;;13.40;;
76867;SDS011;66168;45.478;11.060;2024-01-15T06:41:01;16.60;;;11.40;;
76867;SDS011;66168;45.478;11.060;2024-01-15T06:43:27;17.80;;;11.50;;
76867;SDS011;66168;45.478;11.060;2024-01-15T06:45:54;16.60;;;10.90;;
76867;SDS011;66168;45.478;11.060;2024-01-15T06:48:22;24.90;;;14.20;;
76867;SDS011;66168;45.478;11.060;2024-01-15T06:50:49;35.50;;;17.80;;
76867;SDS011;66168;45.478;11.060;2024-01-15T06:53:16;25.20;;;14.40;;
76867;SDS011;66168;45.478;11.060;2024-01-15T06:55:43;32.00;;;17.40;;
76867;SDS011;66168;45.478;11.060;2024-01-15T06:58:09;30.50;;;15.10;;
76867;SDS011;66168;45.478;11.060;2024-01-15T07:00:36;28.90;;;15.40;;
76867;SDS011;66168;45.478;11.060;2024-01-15T07:03:04;29.70;;;16.30;;
76867;SDS011;66168;45.478;11.060;2024-01-15T07:05:31;27.90;;;15.40;;
76867;SDS011;66168;45.478;11.060;2024-01-15T07:07:58;29.90;;;14.70;;
76867;SDS011;66168;45.478;11.060;2024-01-15T07:10:25;29.70;;;14.70;;
76867;SDS011;66168;45.478;11.060;2024-01-15T07:12:52;28.30;;;14.90;;
76867;SDS011;66168;45.478;11.060;2024-01-15T07:15:20;39.50;;;19.00;;
76867;SDS011;66168;45.478;11.060;2024-01-15T07:17:47;30.10;;;17.50;;
76867;SDS011;66168;45.478;11.060;2024-01-15T07:20:14;27.20;;;15.80;;
76867;SDS011;66168;45.478;11.060;2024-01-15T07:22:41;27.10;;;14.70;;
76867;SDS011;66168;45.478;11.060;2024-01-15T07:25:07;27.30;;;15.30;;
76867;SDS011;66168;45.478;11.060;2024-01-15T07:27:34;31.60;;;15.30;;
76867;SDS011;66168;45.478;11.060;2024-01-15T07:30:01;27.90;;;13.90;;
76867;SDS011;66168;45.478;11.060;2024-01-15T07:32:30;23.80;;;12.20;;
76867;SDS011;66168;45.478;11.060;2024-01-15T07:34:58;21.50;;;11.60;;
76867;SDS011;66168;45.478;11.060;2024-01-15T07:37:26;22.30;;;12.40;;
76867;SDS011;66168;45.478;11.060;2024-01-15T07:39:53;24.20;;;12.40;;
76867;SDS011;66168;45.478;11.060;2024-01-15T07:42:20;22.80;;;12.50;;
76867;SDS011;66168;45.478;11.060;2024-01-15T07:44:47;39.90;;;20.90;;
76867;SDS011;66168;45.478;11.060;2024-01-15T07:47:14;31.70;;;18.30;;
76867;SDS011;66168;45.478;11.060;2024-01-15T07:49:41;34.90;;;18.80;;
76867;SDS011;66168;45.478;11.060;2024-01-15T07:52:08;24.90;;;14.50;;
76867;SDS011;66168;45.478;11.060;2024-01-15T07:54:35;24.70;;;14.00;;
76867;SDS011;66168;45.478;11.060;2024-01-15T07:57:02;23.30;;;13.90;;
76867;SDS011;66168;45.478;11.060;2024-01-15T07:59:32;25.80;;;14.30;;
76867;SDS011;66168;45.478;11.060;2024-01-15T08:01:59;19.70;;;12.50;;
76867;SDS011;66168;45.478;11.060;2024-01-15T08:04:26;24.30;;;13.40;;
76867;SDS011;66168;45.478;11.060;2024-01-15T08:06:54;24.30;;;14.40;;
76867;SDS011;66168;45.478;11.060;2024-01-15T08:09:21;26.10;;;13.80;;
76867;SDS011;66168;45.478;11.060;2024-01-15T08:11:49;27.20;;;14.00;;
76867;SDS011;66168;45.478;11.060;2024-01-15T08:14:16;24.90;;;13.30;;
76867;SDS011;66168;45.478;11.060;2024-01-15T08:16:42;25.30;;;15.10;;
76867;SDS011;66168;45.478;11.060;2024-01-15T08:19:10;30.20;;;16.70;;
76867;SDS011;66168;45.478;11.060;2024-01-15T08:21:37;29.10;;;16.00;;
76867;SDS011;66168;45.478;11.060;2024-01-15T08:24:05;27.00;;;14.90;;
76867;SDS011;66168;45.478;11.060;2024-01-15T08:26:32;22.60;;;12.60;;
76867;SDS011;66168;45.478;11.060;2024-01-15T08:28:59;29.60;;;16.50;;
76867;SDS011;66168;45.478;11.060;2024-01-15T08:31:26;30.50;;;15.30;;
76867;SDS011;66168;45.478;11.060;2024-01-15T08:33:54;34.10;;;17.20;;
76867;SDS011;66168;45.478;11.060;2024-01-15T08:36:22;32.30;;;17.10;;
76867;SDS011;66168;45.478;11.060;2024-01-15T08:38:50;33.00;;;17.40;;
76867;SDS011;66168;45.478;11.060;2024-01-15T08:41:17;33.00;;;18.00;;
76867;SDS011;66168;45.478;11.060;2024-01-15T08:43:44;35.20;;;19.80;;
76867;SDS011;66168;45.478;11.060;2024-01-15T08:46:11;29.60;;;16.80;;
76867;SDS011;66168;45.478;11.060;2024-01-15T08:48:38;34.60;;;19.90;;
76867;SDS011;66168;45.478;11.060;2024-01-15T08:51:06;33.90;;;20.50;;
76867;SDS011;66168;45.478;11.060;2024-01-15T08:53:34;34.30;;;19.40;;
76867;SDS011;66168;45.478;11.060;2024-01-15T08:56:01;41.90;;;21.60;;
76867;SDS011;66168;45.478;11.060;2024-01-15T08:58:28;42.00;;;22.90;;
76867;SDS011;66168;45.478;11.060;2024-01-15T09:00:55;35.70;;;19.50;;
76867;SDS011;66168;45.478;11.060;2024-01-15T09:03:22;29.90;;;16.70;;
76867;SDS011;66168;45.478;11.060;2024-01-15T09:05:49;38.30;;;22.10;;
76867;SDS011;66168;45.478;11.060;2024-01-15T09:08:16;26.40;;;13.70;;
76867;SDS011;66168;45.478;11.060;2024-01-15T09:10:43;29.90;;;19.20;;
76867;SDS011;66168;45.478;11.060;2024-01-15T09:13:10;35.60;;;21.60;;
76867;SDS011;66168;45.478;11.060;2024-01-15T09:15:37;26.20;;;16.70;;
76867;SDS011;66168;45.478;11.060;2024-01-15T09:18:04;24.90;;;15.50;;
76867;SDS011;66168;45.478;11.060;2024-01-15T09:20:34;33.40;;;17.50;;
76867;SDS011;66168;45.478;11.060;2024-01-15T09:23:01;30.90;;;17.60;;
76867;SDS011;66168;45.478;11.060;2024-01-15T09:25:30;32.50;;;18.70;;
76867;SDS011;66168;45.478;11.060;2024-01-15T09:27:57;29.30;;;18.10;;
76867;SDS011;66168;45.478;11.060;2024-01-15T09:30:24;23.60;;;14.20;;
76867;SDS011;66168;45.478;11.060;2024-01-15T09:32:52;26.70;;;14.90;;
76867;SDS011;66168;45.478;11.060;2024-01-15T09:35:19;27.10;;;17.30;;
76867;SDS011;66168;45.478;11.060;2024-01-15T09:37:50;28.30;;;18.80;;
76867;SDS011;66168;45.478;11.060;2024-01-15T09:40:17;27.10;;;16.10;;
76867;SDS011;66168;45.478;11.060;2024-01-15T09:42:46;27.90;;;17.30;;
76867;SDS011;66168;45.478;11.060;2024-01-15T09:45:14;33.90;;;19.50;;
76867;SDS011;66168;45.478;11.060;2024-01-15T09:47:41;29.30;;;18.10;;
76867;SDS011;66168;45.478;11.060;2024-01-15T09:50:12;32.70;;;17.80;;
76867;SDS011;66168;45.478;11.060;2024-01-15T09:52:40;36.20;;;19.10;;
76867;SDS011;66168;45.478;11.060;2024-01-15T09:55:07;33.30;;;18.20;;
76867;SDS011;66168;45.478;11.060;2024-01-15T09:57:36;33.00;;;18.00;;
76867;SDS011;66168;45.478;11.060;2024-01-15T10:00:03;27.60;;;17.30;;
76867;SDS011;66168;45.478;11.060;2024-01-15T10:02:33;23.00;;;14.70;;
76867;SDS011;66168;45.478;11.060;2024-01-15T10:05:02;16.50;;;9.50;;
76867;SDS011;66168;45.478;11.060;2024-01-15T10:07:29;29.20;;;17.80;;
76867;SDS011;66168;45.478;11.060;2024-01-15T10:10:00;29.20;;;18.40;;
76867;SDS011;66168;45.478;11.060;2024-01-15T10:12:27;28.60;;;16.20;;
76867;SDS011;66168;45.478;11.060;2024-01-15T10:14:55;31.70;;;18.00;;
76867;SDS011;66168;45.478;11.060;2024-01-15T10:17:23;33.50;;;16.80;;
76867;SDS011;66168;45.478;11.060;2024-01-15T10:19:52;30.90;;;16.10;;
76867;SDS011;66168;45.478;11.060;2024-01-15T10:22:19;25.20;;;14.80;;
76867;SDS011;66168;45.478;11.060;2024-01-15T10:24:46;31.30;;;16.60;;
76867;SDS011;66168;45.478;11.060;2024-01-15T10:27:16;30.20;;;17.90;;
76867;SDS011;66168;45.478;11.060;2024-01-15T10:29:43;27.30;;;16.20;;
76867;SDS011;66168;45.478;11.060;2024-01-15T10:32:10;27.80;;;15.50;;
76867;SDS011;66168;45.478;11.060;2024-01-15T10:34:38;21.10;;;11.70;;
76867;SDS011;66168;45.478;11.060;2024-01-15T10:37:08;25.20;;;16.10;;
76867;SDS011;66168;45.478;11.060;2024-01-15T10:39:35;28.00;;;16.80;;
76867;SDS011;66168;45.478;11.060;2024-01-15T10:42:03;25.60;;;17.00;;
76867;SDS011;66168;45.478;11.060;2024-01-15T10:44:31;33.00;;;17.40;;
76867;SDS011;66168;45.478;11.060;2024-01-15T10:46:58;34.60;;;18.30;;
76867;SDS011;66168;45.478;11.060;2024-01-15T10:49:25;25.30;;;13.70;;
76867;SDS011;66168;45.478;11.060;2024-01-15T10:51:58;28.30;;;16.10;;
76867;SDS011;66168;45.478;11.060;2024-01-15T10:54:27;27.00;;;15.60;;
76867;SDS011;66168;45.478;11.060;2024-01-15T10:56:55;33.80;;;19.30;;
76867;SDS011;66168;45.478;11.060;2024-01-15T10:59:23;32.30;;;17.70;;
76867;SDS011;66168;45.478;11.060;2024-01-15T11:01:51;32.00;;;19.60;;
76867;SDS011;66168;45.478;11.060;2024-01-15T11:04:22;28.40;;;17.20;;
76867;SDS011;66168;45.478;11.060;2024-01-15T11:06:52;29.40;;;17.10;;
76867;SDS011;66168;45.478;11.060;2024-01-15T11:09:22;31.40;;;19.50;;
76867;SDS011;66168;45.478;11.060;2024-01-15T11:12:06;26.40;;;15.60;;
76867;SDS011;66168;45.478;11.060;2024-01-15T11:14:41;41.50;;;20.60;;
76867;SDS011;66168;45.478;11.060;2024-01-15T11:17:12;37.90;;;19.70;;
76867;SDS011;66168;45.478;11.060;2024-01-15T11:24:57;34.80;;;18.70;;
76867;SDS011;66168;45.478;11.060;2024-01-15T11:27:44;34.10;;;18.10;;
76867;SDS011;66168;45.478;11.060;2024-01-15T11:30:11;32.50;;;18.40;;
76867;SDS011;66168;45.478;11.060;2024-01-15T11:32:39;28.50;;;16.80;;
76867;SDS011;66168;45.478;11.060;2024-01-15T11:35:10;28.20;;;16.80;;
76867;SDS011;66168;45.478;11.060;2024-01-15T11:40:18;36.30;;;19.60;;
76867;SDS011;66168;45.478;11.060;2024-01-15T11:42:46;43.40;;;21.90;;
76867;SDS011;66168;45.478;11.060;2024-01-15T11:45:20;28.30;;;15.80;;
76867;SDS011;66168;45.478;11.060;2024-01-15T11:50:35;38.30;;;21.90;;
76867;SDS011;66168;45.478;11.060;2024-01-15T11:53:09;36.90;;;21.90;;
76867;SDS011;66168;45.478;11.060;2024-01-15T11:55:58;37.70;;;22.30;;
76867;SDS011;66168;45.478;11.060;2024-01-15T11:58:28;40.80;;;23.00;;
76867;SDS011;66168;45.478;11.060;2024-01-15T12:00:55;42.90;;;25.30;;
76867;SDS011;66168;45.478;11.060;2024-01-15T12:03:23;40.80;;;23.90;;
76867;SDS011;66168;45.478;11.060;2024-01-15T12:05:54;41.70;;;22.60;;
76867;SDS011;66168;45.478;11.060;2024-01-15T12:08:22;40.40;;;23.20;;
76867;SDS011;66168;45.478;11.060;2024-01-15T12:10:50;41.90;;;23.90;;
76867;SDS011;66168;45.478;11.060;2024-01-15T12:13:18;36.50;;;20.70;;
76867;SDS011;66168;45.478;11.060;2024-01-15T12:15:47;34.20;;;20.70;;
76867;SDS011;66168;45.478;11.060;2024-01-15T12:18:16;35.00;;;21.10;;
76867;SDS011;66168;45.478;11.060;2024-01-15T12:20:45;37.00;;;21.80;;
76867;SDS011;66168;45.478;11.060;2024-01-15T12:23:16;42.50;;;23.30;;
76867;SDS011;66168;45.478;11.060;2024-01-15T12:25:44;45.60;;;25.40;;
76867;SDS011;66168;45.478;11.060;2024-01-15T12:28:12;38.40;;;22.20;;
76867;SDS011;66168;45.478;11.060;2024-01-15T12:30:39;38.80;;;21.40;;
76867;SDS011;66168;45.478;11.060;2024-01-15T12:33:07;39.50;;;22.80;;
76867;SDS011;66168;45.478;11.060;2024-01-15T12:35:36;37.10;;;22.60;;
76867;SDS011;66168;45.478;11.060;2024-01-15T12:38:03;33.50;;;20.20;;
76867;SDS011;66168;45.478;11.060;2024-01-15T12:40:31;42.40;;;23.30;;
76867;SDS011;66168;45.478;11.060;2024-01-15T12:43:00;32.90;;;20.10;;
76867;SDS011;66168;45.478;11.060;2024-01-15T12:45:28;34.00;;;19.60;;
76867;SDS011;66168;45.478;11.060;2024-01-15T12:47:56;33.00;;;18.20;;
76867;SDS011;66168;45.478;11.060;2024-01-15T12:50:24;31.80;;;19.30;;
76867;SDS011;66168;45.478;11.060;2024-01-15T12:52:52;36.20;;;21.80;;
76867;SDS011;66168;45.478;11.060;2024-01-15T12:55:19;39.60;;;22.70;;
76867;SDS011;66168;45.478;11.060;2024-01-15T12:57:46;36.20;;;20.80;;
76867;SDS011;66168;45.478;11.060;2024-01-15T13:00:13;28.80;;;16.90;;
76867;SDS011;66168;45.478;11.060;2024-01-15T13:02:42;36.50;;;22.00;;
76867;SDS011;66168;45.478;11.060;2024-01-15T13:05:11;30.40;;;15.90;;
76867;SDS011;66168;45.478;11.060;2024-01-15T13:07:40;38.90;;;21.00;;
76867;SDS011;66168;45.478;11.060;2024-01-15T13:10:07;38.90;;;21.80;;
76867;SDS011;66168;45.478;11.060;2024-01-15T13:12:39;44.80;;;25.70;;
76867;SDS011;66168;45.478;11.060;2024-01-15T13:15:08;46.10;;;24.30;;
76867;SDS011;66168;45.478;11.060;2024-01-15T13:17:41;37.10;;;20.20;;
76867;SDS011;66168;45.478;11.060;2024-01-15T13:20:09;38.20;;;22.40;;
76867;SDS011;66168;45.478;11.060;2024-01-15T13:22:38;33.40;;;19.70;;
76867;SDS011;66168;45.478;11.060;2024-01-15T13:25:07;44.50;;;26.30;;
76867;SDS011;66168;45.478;11.060;2024-01-15T13:27:35;46.60;;;27.30;;
76867;SDS011;66168;45.478;11.060;2024-01-15T13:30:03;41.90;;;24.10;;
76867;SDS011;66168;45.478;11.060;2024-01-15T13:32:35;32.90;;;19.60;;
76867;SDS011;66168;45.478;11.060;2024-01-15T13:35:02;36.00;;;21.60;;
76867;SDS011;66168;45.478;11.060;2024-01-15T13:37:32;38.60;;;22.70;;
76867;SDS011;66168;45.478;11.060;2024-01-15T13:39:59;40.80;;;24.60;;
76867;SDS011;66168;45.478;11.060;2024-01-15T13:42:26;31.40;;;19.40;;
76867;SDS011;66168;45.478;11.060;2024-01-15T13:44:54;35.60;;;22.00;;
76867;SDS011;66168;45.478;11.060;2024-01-15T13:47:21;48.90;;;28.50;;
76867;SDS011;66168;45.478;11.060;2024-01-15T13:49:48;55.70;;;32.10;;
76867;SDS011;66168;45.478;11.060;2024-01-15T13:52:16;50.30;;;31.20;;
76867;SDS011;66168;45.478;11.060;2024-01-15T13:54:44;41.80;;;24.60;;
76867;SDS011;66168;45.478;11.060;2024-01-15T13:57:16;42.30;;;23.70;;
76867;SDS011;66168;45.478;11.060;2024-01-15T13:59:45;38.20;;;21.90;;
76867;SDS011;66168;45.478;11.060;2024-01-15T14:02:13;46.50;;;26.60;;
76867;SDS011;66168;45.478;11.060;2024-01-15T14:04:49;46.90;;;26.30;;
76867;SDS011;66168;45.478;11.060;2024-01-15T14:07:16;32.80;;;20.00;;
76867;SDS011;66168;45.478;11.060;2024-01-15T14:09:43;41.80;;;24.90;;
76867;SDS011;66168;45.478;11.060;2024-01-15T14:12:11;46.50;;;26.40;;
76867;SDS011;66168;45.478;11.060;2024-01-15T14:15:45;43.10;;;24.20;;
76867;SDS011;66168;45.478;11.060;2024-01-15T14:18:22;36.70;;;21.40;;
76867;SDS011;66168;45.478;11.060;2024-01-15T14:20:50;35.30;;;20.60;;
76867;SDS011;66168;45.478;11.060;2024-01-15T14:23:17;36.40;;;22.30;;
76867;SDS011;66168;45.478;11.060;2024-01-15T14:25:43;32.00;;;20.80;;